createdAt,value
2018-06-11T00:00:25.960Z,20.09
2018-06-11T00:01:31.784Z,19.86
2018-06-11T00:02:38.306Z,19.57
2018-06-11T00:03:45.242Z,19.43
2018-06-11T00:04:50.441Z,19.26
2018-06-11T00:05:58.169Z,19.02
2018-06-11T00:07:04.092Z,18.85
2018-06-11T00:08:12.256Z,18.74
2018-06-11T00:09:17.240Z,18.58
2018-06-11T00:10:23.371Z,18.48
2018-06-11T00:11:29.853Z,18.40
2018-06-11T00:12:40.372Z,18.22
2018-06-11T00:13:46.431Z,18.15
2018-06-11T00:14:54.747Z,18.10
2018-06-11T00:16:03.260Z,17.99
2018-06-11T00:17:10.095Z,17.96
2018-06-11T00:18:17.355Z,17.89
2018-06-11T00:19:37.464Z,17.81
2018-06-11T00:20:45.847Z,17.73
2018-06-11T00:21:52.376Z,17.66
2018-06-11T00:22:57.698Z,17.62
2018-06-11T00:24:04.656Z,17.55
2018-06-11T00:25:09.725Z,17.52
2018-06-11T00:26:17.384Z,17.47
2018-06-11T00:27:23.525Z,17.45
2018-06-11T00:28:32.789Z,17.41
2018-06-11T00:29:37.739Z,17.40
2018-06-11T00:30:42.869Z,17.29
2018-06-11T00:31:50.507Z,17.27
2018-06-11T00:33:00.317Z,17.18
2018-06-11T00:34:13.491Z,17.21
2018-06-11T00:35:22.867Z,17.15
2018-06-11T00:36:29.372Z,17.10
2018-06-11T00:37:34.829Z,17.08
2018-06-11T00:38:39.925Z,17.07
2018-06-11T00:39:45.991Z,17.03
2018-06-11T00:40:52.204Z,17.01
2018-06-11T00:41:58.249Z,17.00
2018-06-11T00:43:03.063Z,16.97
2018-06-11T00:44:09.364Z,16.98
2018-06-11T00:45:16.016Z,16.96
2018-06-11T00:46:21.202Z,16.92
2018-06-11T00:47:27.306Z,16.93
2018-06-11T00:48:33.138Z,16.89
2018-06-11T00:49:38.146Z,16.89
2018-06-11T00:50:43.708Z,16.84
2018-06-11T00:51:53.446Z,16.76
2018-06-11T00:52:59.570Z,16.79
2018-06-11T00:54:05.524Z,16.75
2018-06-11T00:55:12.190Z,16.68
2018-06-11T00:56:21.203Z,16.70
2018-06-11T00:57:26.039Z,16.68
2018-06-11T00:58:35.710Z,16.64
2018-06-11T00:59:43.708Z,16.67
2018-06-11T01:00:48.528Z,16.67
2018-06-11T01:02:00.133Z,16.67
2018-06-11T01:03:04.859Z,16.67
2018-06-11T01:04:09.621Z,16.70
2018-06-11T01:05:19.631Z,16.69
2018-06-11T01:06:25.608Z,16.69
2018-06-11T01:07:30.522Z,16.67
2018-06-11T01:08:35.352Z,16.68
2018-06-11T01:09:40.726Z,16.63
2018-06-11T01:10:45.708Z,16.61
2018-06-11T01:11:50.906Z,16.60
2018-06-11T01:12:55.641Z,16.63
2018-06-11T01:14:00.547Z,16.60
2018-06-11T01:15:09.779Z,16.59
2018-06-11T01:16:15.310Z,16.57
2018-06-11T01:17:20.372Z,16.55
2018-06-11T01:18:25.515Z,16.57
2018-06-11T01:19:31.532Z,16.59
2018-06-11T01:20:36.517Z,16.61
2018-06-11T01:21:41.497Z,16.64
2018-06-11T01:22:46.630Z,16.65
2018-06-11T01:23:51.540Z,16.63
2018-06-11T01:24:56.839Z,16.58
2018-06-11T01:26:01.853Z,16.61
2018-06-11T01:27:07.292Z,16.62
2018-06-11T01:28:12.474Z,16.65
2018-06-11T01:29:18.537Z,16.64
2018-06-11T01:30:23.433Z,16.65
2018-06-11T01:31:39.726Z,16.65
2018-06-11T01:32:48.431Z,16.61
2018-06-11T01:33:55.259Z,16.63
2018-06-11T01:35:01.042Z,16.61
2018-06-11T01:36:06.226Z,16.63
2018-06-11T01:37:12.926Z,16.65
2018-06-11T01:38:24.272Z,16.62
2018-06-11T01:39:30.228Z,16.62
2018-06-11T01:40:35.328Z,16.63
2018-06-11T01:41:40.920Z,16.62
2018-06-11T01:42:47.065Z,16.62
2018-06-11T01:43:51.948Z,16.65
2018-06-11T01:44:59.498Z,16.63
2018-06-11T01:46:11.454Z,16.63
2018-06-11T01:47:17.333Z,16.64
2018-06-11T01:48:23.480Z,16.65
2018-06-11T01:49:29.624Z,16.67
2018-06-11T01:50:36.081Z,16.63
2018-06-11T01:51:44.908Z,16.65
2018-06-11T01:52:51.407Z,16.61
2018-06-11T01:53:57.544Z,16.61
2018-06-11T01:55:03.480Z,16.61
2018-06-11T01:56:10.411Z,16.59
2018-06-11T01:57:15.259Z,16.60
2018-06-11T01:58:31.626Z,16.60
2018-06-11T01:59:36.568Z,16.60
2018-06-11T02:00:44.022Z,16.58
2018-06-11T02:01:49.359Z,16.61
2018-06-11T02:02:54.887Z,16.60
2018-06-11T02:04:02.311Z,16.63
2018-06-11T02:05:09.576Z,16.64
2018-06-11T02:06:15.439Z,16.63
2018-06-11T02:07:20.168Z,16.60
2018-06-11T02:08:26.065Z,16.62
2018-06-11T02:09:30.902Z,16.63
2018-06-11T02:10:36.276Z,16.61
2018-06-11T02:11:47.739Z,16.61
2018-06-11T02:12:52.781Z,16.62
2018-06-11T02:13:58.603Z,16.66
2018-06-11T02:15:04.868Z,16.63
2018-06-11T02:16:09.847Z,16.60
2018-06-11T02:17:14.640Z,16.58
2018-06-11T02:18:23.404Z,16.60
2018-06-11T02:19:28.680Z,16.63
2018-06-11T02:20:34.000Z,16.59
2018-06-11T02:21:40.085Z,16.55
2018-06-11T02:22:45.300Z,16.58
2018-06-11T02:23:51.764Z,16.57
2018-06-11T02:24:57.093Z,16.57
2018-06-11T02:26:02.005Z,16.57
2018-06-11T02:27:06.935Z,16.57
2018-06-11T02:28:11.969Z,16.53
2018-06-11T02:29:16.858Z,16.52
2018-06-11T02:30:23.564Z,16.53
2018-06-11T02:31:28.439Z,16.53
2018-06-11T02:32:33.277Z,16.52
2018-06-11T02:33:38.246Z,16.52
2018-06-11T02:34:44.162Z,16.49
2018-06-11T02:35:49.068Z,16.49
2018-06-11T02:37:00.277Z,16.43
2018-06-11T02:38:05.109Z,16.43
2018-06-11T02:39:14.797Z,16.43
2018-06-11T02:40:19.919Z,16.41
2018-06-11T02:41:26.666Z,16.34
2018-06-11T02:42:31.875Z,16.28
2018-06-11T02:43:38.712Z,16.31
2018-06-11T02:44:43.862Z,16.27
2018-06-11T02:45:49.969Z,16.28
2018-06-11T02:46:55.254Z,16.28
2018-06-11T02:48:01.175Z,16.26
2018-06-11T02:49:07.104Z,16.20
2018-06-11T02:50:12.376Z,16.20
2018-06-11T02:51:19.636Z,16.23
2018-06-11T02:52:25.460Z,16.22
2018-06-11T02:53:31.837Z,16.19
2018-06-11T02:54:38.131Z,16.21
2018-06-11T02:55:44.603Z,16.18
2018-06-11T02:56:51.051Z,16.17
2018-06-11T02:57:57.133Z,16.16
2018-06-11T02:59:04.147Z,16.08
2018-06-11T03:00:09.875Z,16.06
2018-06-11T03:01:15.680Z,16.06
2018-06-11T03:02:23.687Z,16.00
2018-06-11T03:03:29.871Z,15.96
2018-06-11T03:04:34.727Z,15.96
2018-06-11T03:05:39.814Z,15.92
2018-06-11T03:06:44.635Z,15.93
2018-06-11T03:07:49.385Z,15.95
2018-06-11T03:08:55.254Z,15.94
2018-06-11T03:10:06.013Z,15.94
2018-06-11T03:11:18.008Z,15.92
2018-06-11T03:12:22.724Z,15.90
2018-06-11T03:13:27.471Z,15.91
2018-06-11T03:14:32.794Z,15.89
2018-06-11T03:15:37.823Z,15.85
2018-06-11T03:16:44.869Z,15.87
2018-06-11T03:17:49.684Z,15.89
2018-06-11T03:18:54.406Z,15.85
2018-06-11T03:19:59.264Z,15.82
2018-06-11T03:21:04.104Z,15.77
2018-06-11T03:22:08.876Z,15.73
2018-06-11T03:23:17.502Z,15.72
2018-06-11T03:24:23.328Z,15.69
2018-06-11T03:25:28.441Z,15.70
2018-06-11T03:26:33.450Z,15.72
2018-06-11T03:27:40.072Z,15.70
2018-06-11T03:28:44.952Z,15.67
2018-06-11T03:29:53.726Z,15.63
2018-06-11T03:30:58.581Z,15.64
2018-06-11T03:32:04.647Z,15.60
2018-06-11T03:33:09.366Z,15.56
2018-06-11T03:34:16.630Z,15.59
2018-06-11T03:35:21.332Z,15.59
2018-06-11T03:36:26.399Z,15.60
2018-06-11T03:37:31.153Z,15.58
2018-06-11T03:38:35.828Z,15.57
2018-06-11T03:39:40.570Z,15.57
2018-06-11T03:40:45.283Z,15.56
2018-06-11T03:41:50.045Z,15.58
2018-06-11T03:42:58.629Z,15.57
2018-06-11T03:44:03.411Z,15.47
2018-06-11T03:45:09.444Z,15.50
2018-06-11T03:46:14.247Z,15.51
2018-06-11T03:47:19.268Z,15.52
2018-06-11T03:48:25.076Z,15.53
2018-06-11T03:49:29.854Z,15.55
2018-06-11T03:50:34.622Z,15.55
2018-06-11T03:51:40.236Z,15.58
2018-06-11T03:52:44.988Z,15.59
2018-06-11T03:53:51.667Z,15.58
2018-06-11T03:55:12.408Z,15.53
2018-06-11T03:56:17.224Z,15.59
2018-06-11T03:57:21.951Z,15.62
2018-06-11T03:58:26.639Z,15.60
2018-06-11T03:59:31.385Z,15.60
2018-06-11T04:00:37.328Z,15.63
2018-06-11T04:01:43.368Z,15.64
2018-06-11T04:02:48.847Z,15.61
2018-06-11T04:03:54.204Z,15.63
2018-06-11T04:04:59.079Z,15.65
2018-06-11T04:06:03.854Z,15.66
2018-06-11T04:07:08.580Z,15.67
2018-06-11T04:08:13.741Z,15.70
2018-06-11T04:09:18.513Z,15.67
2018-06-11T04:10:23.330Z,15.64
2018-06-11T04:11:28.728Z,15.64
2018-06-11T04:12:33.561Z,15.65
2018-06-11T04:13:39.223Z,15.65
2018-06-11T04:14:44.295Z,15.69
2018-06-11T04:15:50.333Z,15.69
2018-06-11T04:16:55.158Z,15.75
2018-06-11T04:18:01.338Z,15.73
2018-06-11T04:19:06.654Z,15.80
2018-06-11T04:20:12.092Z,15.79
2018-06-11T04:21:26.978Z,15.80
2018-06-11T04:22:31.720Z,15.81
2018-06-11T04:23:36.426Z,15.84
2018-06-11T04:24:41.271Z,15.90
2018-06-11T04:25:46.393Z,15.91
2018-06-11T04:26:51.151Z,15.95
2018-06-11T04:27:58.253Z,15.94
2018-06-11T04:29:03.192Z,15.96
2018-06-11T04:30:07.988Z,15.96
2018-06-11T04:31:12.694Z,16.01
2018-06-11T04:32:17.471Z,16.03
2018-06-11T04:33:22.366Z,16.05
2018-06-11T04:34:30.883Z,16.05
2018-06-11T04:35:35.999Z,16.04
2018-06-11T04:36:40.782Z,15.94
2018-06-11T04:37:45.800Z,16.02
2018-06-11T04:38:50.871Z,16.03
2018-06-11T04:39:56.107Z,16.07
2018-06-11T04:41:07.155Z,16.10
2018-06-11T04:42:13.079Z,16.12
2018-06-11T04:43:18.314Z,16.13
2018-06-11T04:44:23.344Z,16.12
2018-06-11T04:45:28.091Z,16.15
2018-06-11T04:46:33.149Z,16.21
2018-06-11T04:47:42.903Z,16.26
2018-06-11T04:48:47.818Z,16.30
2018-06-11T04:49:52.670Z,16.32
2018-06-11T04:50:57.544Z,16.35
2018-06-11T04:52:02.340Z,16.38
2018-06-11T04:53:07.081Z,16.38
2018-06-11T04:54:12.086Z,16.44
2018-06-11T04:55:17.748Z,16.50
2018-06-11T04:56:22.524Z,16.55
2018-06-11T04:57:27.375Z,16.52
2018-06-11T04:58:32.273Z,16.52
2018-06-11T04:59:37.269Z,16.51
2018-06-11T05:00:43.525Z,16.49
2018-06-11T05:01:49.055Z,16.58
2018-06-11T05:02:55.426Z,16.47
2018-06-11T05:04:00.169Z,16.48
2018-06-11T05:05:19.948Z,16.51
2018-06-11T05:06:24.675Z,16.45
2018-06-11T05:07:29.856Z,16.46
2018-06-11T05:08:34.757Z,16.49
2018-06-11T05:09:39.839Z,16.58
2018-06-11T05:10:44.651Z,16.54
2018-06-11T05:11:50.855Z,16.54
2018-06-11T05:12:57.953Z,16.58
2018-06-11T05:14:05.504Z,16.59
2018-06-11T05:15:13.498Z,16.56
2018-06-11T05:16:24.976Z,16.55
2018-06-11T05:17:29.812Z,16.63
2018-06-11T05:18:35.316Z,16.62
2018-06-11T05:19:40.495Z,16.64
2018-06-11T05:20:46.584Z,16.69
2018-06-11T05:21:52.278Z,16.70
2018-06-11T05:22:57.121Z,16.70
2018-06-11T05:24:01.997Z,16.73
2018-06-11T05:25:07.084Z,16.80
2018-06-11T05:26:12.008Z,16.79
2018-06-11T05:27:17.266Z,16.81
2018-06-11T05:28:23.602Z,16.90
2018-06-11T05:29:37.458Z,16.95
2018-06-11T05:30:42.178Z,16.96
2018-06-11T05:31:46.975Z,16.98
2018-06-11T05:32:57.220Z,16.93
2018-06-11T05:34:02.722Z,16.94
2018-06-11T05:35:07.628Z,17.03
2018-06-11T05:36:12.375Z,17.08
2018-06-11T05:37:17.101Z,17.07
2018-06-11T05:38:22.105Z,17.12
2018-06-11T05:39:28.037Z,17.12
2018-06-11T05:40:33.356Z,17.13
2018-06-11T05:41:39.141Z,17.16
2018-06-11T05:42:45.692Z,17.23
2018-06-11T05:43:51.618Z,17.23
2018-06-11T05:44:56.334Z,17.25
2018-06-11T05:46:01.384Z,17.16
2018-06-11T05:47:06.406Z,17.15
2018-06-11T05:48:11.248Z,17.18
2018-06-11T05:49:16.077Z,17.21
2018-06-11T05:50:21.867Z,17.16
2018-06-11T05:51:27.266Z,17.13
2018-06-11T05:52:34.380Z,17.14
2018-06-11T05:55:14.889Z,17.23
2018-06-11T05:56:19.716Z,17.22
2018-06-11T05:57:25.514Z,17.21
2018-06-11T05:58:30.313Z,17.18
2018-06-11T05:59:35.383Z,17.21
2018-06-11T06:00:40.222Z,17.21
2018-06-11T06:01:46.051Z,17.19
2018-06-11T06:02:51.429Z,17.15
2018-06-11T06:03:56.247Z,17.09
2018-06-11T06:05:00.977Z,17.12
2018-06-11T06:06:13.088Z,17.07
2018-06-11T06:07:18.872Z,17.09
2018-06-11T06:08:23.720Z,17.02
2018-06-11T06:09:28.551Z,16.96
2018-06-11T06:10:33.405Z,17.00
2018-06-11T06:11:38.215Z,17.05
2018-06-11T06:12:48.035Z,17.11
2018-06-11T06:13:52.763Z,17.10
2018-06-11T06:14:59.094Z,17.11
2018-06-11T06:16:09.048Z,17.08
2018-06-11T06:17:16.145Z,17.08
2018-06-11T06:18:23.013Z,17.07
2018-06-11T06:19:29.260Z,17.13
2018-06-11T06:20:34.160Z,17.16
2018-06-11T06:21:38.871Z,17.18
2018-06-11T06:22:43.827Z,17.24
2018-06-11T06:23:48.653Z,17.28
2018-06-11T06:24:53.496Z,17.37
2018-06-11T06:26:02.380Z,17.36
2018-06-11T06:27:07.776Z,17.45
2018-06-11T06:28:12.554Z,17.44
2018-06-11T06:29:18.231Z,17.38
2018-06-11T06:30:25.181Z,17.38
2018-06-11T06:31:31.129Z,17.47
2018-06-11T06:32:37.012Z,17.50
2018-06-11T06:33:41.739Z,17.60
2018-06-11T06:34:46.538Z,17.63
2018-06-11T06:35:52.224Z,17.71
2018-06-11T06:36:57.032Z,17.81
2018-06-11T06:38:01.852Z,17.90
2018-06-11T06:39:10.758Z,17.96
2018-06-11T06:40:16.369Z,18.02
2018-06-11T06:41:22.719Z,18.08
2018-06-11T06:42:29.651Z,18.07
2018-06-11T06:43:34.540Z,18.12
2018-06-11T06:44:39.342Z,18.18
2018-06-11T06:45:46.429Z,18.22
2018-06-11T06:46:51.170Z,18.29
2018-06-11T06:47:56.921Z,18.43
2018-06-11T06:49:02.980Z,18.46
2018-06-11T06:50:07.963Z,18.48
2018-06-11T06:51:12.740Z,18.52
2018-06-11T06:52:20.359Z,18.65
2018-06-11T06:53:26.505Z,18.70
2018-06-11T06:54:33.467Z,18.66
2018-06-11T06:55:41.201Z,18.78
2018-06-11T06:56:46.570Z,18.82
2018-06-11T06:57:51.390Z,18.80
2018-06-11T06:58:56.436Z,18.86
2018-06-11T07:00:01.398Z,18.89
2018-06-11T07:01:06.846Z,18.83
2018-06-11T07:02:11.759Z,18.74
2018-06-11T07:03:16.597Z,18.65
2018-06-11T07:04:25.637Z,18.74
2018-06-11T07:05:30.442Z,18.64
2018-06-11T07:06:35.244Z,18.73
2018-06-11T07:07:40.007Z,18.78
2018-06-11T07:08:45.022Z,18.87
2018-06-11T07:09:49.782Z,18.90
2018-06-11T07:10:56.877Z,18.78
2018-06-11T07:12:02.952Z,18.71
2018-06-11T07:13:07.998Z,18.80
2018-06-11T07:14:12.932Z,18.83
2018-06-11T07:15:18.142Z,18.82
2018-06-11T07:16:23.888Z,18.81
2018-06-11T07:17:30.987Z,18.77
2018-06-11T07:18:35.795Z,18.72
2018-06-11T07:19:42.396Z,18.56
2018-06-11T07:20:47.266Z,18.49
2018-06-11T07:21:52.597Z,18.51
2018-06-11T07:22:57.279Z,18.40
2018-06-11T07:24:04.991Z,18.39
2018-06-11T07:25:10.663Z,18.40
2018-06-11T07:26:15.815Z,18.30
2018-06-11T07:27:23.238Z,18.31
2018-06-11T07:28:29.260Z,18.25
2018-06-11T07:29:35.978Z,18.27
2018-06-11T07:30:44.830Z,18.29
2018-06-11T07:31:51.787Z,18.38
2018-06-11T07:33:05.063Z,18.33
2018-06-11T07:34:11.704Z,18.30
2018-06-11T07:35:17.786Z,18.22
2018-06-11T07:36:51.269Z,18.28
2018-06-11T07:37:58.096Z,18.01
2018-06-11T07:39:04.264Z,18.07
2018-06-11T07:40:10.433Z,18.17
2018-06-11T07:41:15.230Z,18.23
2018-06-11T07:42:19.960Z,18.17
2018-06-11T07:43:25.019Z,18.13
2018-06-11T07:44:29.826Z,18.21
2018-06-11T07:45:34.724Z,18.25
2018-06-11T07:46:42.132Z,18.25
2018-06-11T07:47:49.050Z,18.17
2018-06-11T07:48:56.785Z,18.22
2018-06-11T07:50:03.088Z,18.16
2018-06-11T07:51:08.244Z,18.38
2018-06-11T07:52:15.009Z,18.45
2018-06-11T07:53:21.116Z,18.47
2018-06-11T07:54:27.108Z,18.61
2018-06-11T07:55:42.495Z,18.64
2018-06-11T07:56:51.188Z,18.75
2018-06-11T07:57:56.621Z,18.72
2018-06-11T07:59:05.742Z,18.78
2018-06-11T08:00:10.569Z,18.87
2018-06-11T08:01:17.543Z,18.91
2018-06-11T08:02:24.783Z,19.03
2018-06-11T08:03:29.745Z,19.12
2018-06-11T08:04:45.735Z,18.96
2018-06-11T08:05:51.388Z,18.93
2018-06-11T08:06:56.144Z,18.99
2018-06-11T08:08:01.862Z,19.15
2018-06-11T08:09:20.118Z,19.18
2018-06-11T08:10:28.563Z,19.34
2018-06-11T08:11:33.951Z,19.31
2018-06-11T08:12:43.169Z,19.36
2018-06-11T08:13:48.299Z,19.39
2018-06-11T08:14:54.135Z,19.50
2018-06-11T08:16:03.929Z,19.47
2018-06-11T08:17:11.173Z,19.56
2018-06-11T08:18:15.950Z,19.67
2018-06-11T08:19:21.722Z,19.74
2018-06-11T08:20:28.856Z,19.61
2018-06-11T08:21:34.618Z,19.42
2018-06-11T08:22:41.165Z,19.53
2018-06-11T08:23:49.372Z,19.62
2018-06-11T08:24:57.771Z,19.58
2018-06-11T08:26:03.401Z,19.49
2018-06-11T08:27:08.320Z,19.55
2018-06-11T08:28:16.705Z,19.58
2018-06-11T08:29:21.489Z,19.53
2018-06-11T08:30:30.375Z,19.54
2018-06-11T08:31:35.250Z,19.35
2018-06-11T08:32:40.959Z,19.33
2018-06-11T08:33:46.661Z,19.30
2018-06-11T08:35:00.233Z,19.43
2018-06-11T08:36:06.300Z,19.38
2018-06-11T08:37:12.024Z,19.45
2018-06-11T08:38:17.144Z,19.36
2018-06-11T08:39:22.948Z,19.44
2018-06-11T08:40:28.442Z,19.41
2018-06-11T08:41:41.494Z,19.51
2018-06-11T08:42:47.929Z,19.52
2018-06-11T08:43:52.833Z,19.44
2018-06-11T08:45:00.831Z,19.56
2018-06-11T08:46:09.673Z,19.70
2018-06-11T08:47:14.371Z,19.78
2018-06-11T08:48:37.289Z,19.79
2018-06-11T08:49:41.994Z,19.78
2018-06-11T08:50:47.478Z,19.92
2018-06-11T08:51:53.159Z,19.84
2018-06-11T08:53:00.619Z,19.87
2018-06-11T08:54:07.752Z,19.95
2018-06-11T08:55:15.014Z,19.92
2018-06-11T08:56:19.916Z,20.03
2018-06-11T08:57:24.824Z,20.14
2018-06-11T08:58:30.364Z,20.28
2018-06-11T08:59:35.481Z,20.41
2018-06-11T09:00:41.623Z,20.52
2018-06-11T09:01:51.430Z,20.44
2018-06-11T09:02:57.200Z,20.65
2018-06-11T09:05:13.819Z,20.75
2018-06-11T09:06:20.514Z,20.92
2018-06-11T09:07:29.061Z,20.99
2018-06-11T09:08:40.047Z,21.18
2018-06-11T09:09:44.943Z,21.13
2018-06-11T09:10:51.637Z,21.20
2018-06-11T09:12:00.668Z,21.31
2018-06-11T09:13:08.030Z,21.29
2018-06-11T09:14:15.255Z,21.42
2018-06-11T09:15:21.824Z,21.53
2018-06-11T09:16:26.858Z,21.69
2018-06-11T09:17:32.473Z,21.76
2018-06-11T09:18:38.741Z,21.72
2018-06-11T09:19:44.028Z,21.88
2018-06-11T09:20:49.062Z,21.77
2018-06-11T09:22:00.085Z,21.73
2018-06-11T09:23:05.795Z,21.97
2018-06-11T09:24:10.761Z,21.97
2018-06-11T09:25:15.588Z,21.75
2018-06-11T09:26:23.060Z,21.78
2018-06-11T09:27:29.176Z,21.99
2018-06-11T09:28:37.456Z,22.36
2018-06-11T09:29:51.649Z,22.65
2018-06-11T09:30:57.395Z,22.75
2018-06-11T09:32:04.847Z,22.72
2018-06-11T09:33:11.589Z,22.62
2018-06-11T09:34:22.945Z,22.55
2018-06-11T09:35:28.308Z,22.65
2018-06-11T09:36:33.274Z,22.86
2018-06-11T09:37:38.317Z,22.93
2018-06-11T09:38:44.943Z,22.80
2018-06-11T09:39:51.157Z,22.76
2018-06-11T09:40:56.225Z,22.91
2018-06-11T09:42:01.093Z,23.02
2018-06-11T09:43:07.507Z,22.92
2018-06-11T09:44:15.316Z,22.88
2018-06-11T09:45:22.785Z,22.95
2018-06-11T09:46:28.992Z,23.00
2018-06-11T09:47:35.356Z,23.07
2018-06-11T09:48:41.406Z,23.10
2018-06-11T09:49:47.494Z,23.27
2018-06-11T09:50:54.647Z,23.29
2018-06-11T09:51:59.822Z,23.24
2018-06-11T09:53:05.855Z,23.52
2018-06-11T09:54:12.301Z,23.51
2018-06-11T09:55:20.018Z,23.41
2018-06-11T09:56:27.288Z,23.34
2018-06-11T09:57:33.608Z,23.26
2018-06-11T09:58:40.596Z,23.10
2018-06-11T09:59:50.241Z,23.10
2018-06-11T10:00:57.311Z,23.19
2018-06-11T10:02:04.327Z,23.05
2018-06-11T10:03:09.278Z,23.09
2018-06-11T10:04:14.939Z,23.00
2018-06-11T10:05:23.805Z,23.03
2018-06-11T10:06:35.467Z,22.93
2018-06-11T10:07:46.338Z,22.97
2018-06-11T10:09:01.518Z,22.94
2018-06-11T10:10:08.283Z,22.92
2018-06-11T10:11:13.089Z,22.88
2018-06-11T10:12:24.745Z,23.04
2018-06-11T10:13:35.529Z,22.91
2018-06-11T10:14:43.677Z,22.57
2018-06-11T10:15:53.370Z,22.53
2018-06-11T10:17:00.612Z,22.81
2018-06-11T10:18:05.454Z,22.96
2018-06-11T10:19:11.826Z,22.81
2018-06-11T10:20:18.699Z,22.67
2018-06-11T10:23:05.283Z,23.17
2018-06-11T10:24:11.246Z,23.61
2018-06-11T10:25:19.168Z,23.77
2018-06-11T10:26:25.660Z,23.93
2018-06-11T10:27:32.024Z,24.34
2018-06-11T10:28:39.027Z,24.35
2018-06-11T10:29:45.552Z,24.17
2018-06-11T10:30:50.444Z,24.26
2018-06-11T10:31:56.753Z,24.32
2018-06-11T10:33:02.288Z,24.27
2018-06-11T10:34:09.350Z,24.24
2018-06-11T10:35:14.686Z,24.15
2018-06-11T10:36:23.738Z,24.22
2018-06-11T10:37:30.734Z,24.27
2018-06-11T10:38:38.195Z,24.24
2018-06-11T10:39:48.583Z,24.14
2018-06-11T10:40:54.621Z,24.14
2018-06-11T10:42:00.366Z,24.23
2018-06-11T10:43:08.239Z,24.36
2018-06-11T10:44:15.551Z,23.95
2018-06-11T10:45:22.530Z,23.93
2018-06-11T10:46:27.320Z,24.17
2018-06-11T10:47:36.652Z,24.48
2018-06-11T10:48:44.022Z,24.88
2018-06-11T10:49:54.291Z,25.03
2018-06-11T10:51:01.337Z,24.98
2018-06-11T10:52:16.633Z,25.27
2018-06-11T10:53:37.398Z,25.28
2018-06-11T10:54:43.278Z,25.20
2018-06-11T10:55:49.924Z,25.41
2018-06-11T10:56:55.978Z,25.77
2018-06-11T10:58:01.491Z,25.93
2018-06-11T10:59:06.714Z,25.76
2018-06-11T11:00:17.780Z,25.58
2018-06-11T11:01:22.513Z,25.79
2018-06-11T11:02:27.473Z,25.78
2018-06-11T11:03:42.586Z,25.89
2018-06-11T11:04:48.932Z,26.28
2018-06-11T11:05:55.075Z,26.23
2018-06-11T11:07:00.059Z,26.48
2018-06-11T11:08:05.504Z,26.59
2018-06-11T11:09:10.878Z,26.52
2018-06-11T11:10:17.044Z,26.65
2018-06-11T11:11:24.788Z,26.60
2018-06-11T11:12:32.320Z,26.99
2018-06-11T11:13:40.622Z,27.07
2018-06-11T11:14:46.234Z,27.04
2018-06-11T11:15:56.331Z,27.10
2018-06-11T11:17:02.727Z,27.28
2018-06-11T11:18:10.121Z,27.21
2018-06-11T11:19:16.294Z,27.09
2018-06-11T11:20:21.207Z,27.24
2018-06-11T11:21:27.723Z,27.14
2018-06-11T11:22:32.448Z,27.32
2018-06-11T11:23:38.122Z,27.17
2018-06-11T11:24:45.213Z,27.06
2018-06-11T11:25:51.933Z,27.25
2018-06-11T11:26:58.372Z,27.24
2018-06-11T11:28:04.579Z,27.25
2018-06-11T11:29:14.120Z,27.23
2018-06-11T11:30:21.645Z,27.40
2018-06-11T11:31:26.708Z,27.41
2018-06-11T11:32:33.396Z,27.49
2018-06-11T11:33:39.054Z,27.72
2018-06-11T11:34:58.829Z,27.48
2018-06-11T11:36:04.501Z,27.18
2018-06-11T11:37:11.093Z,27.16
2018-06-11T11:38:23.753Z,27.01
2018-06-11T11:39:28.576Z,27.49
2018-06-11T11:40:34.761Z,27.84
2018-06-11T11:41:40.761Z,28.08
2018-06-11T11:42:47.600Z,28.21
2018-06-11T11:43:52.792Z,28.31
2018-06-11T11:45:00.609Z,28.27
2018-06-11T11:46:06.645Z,28.65
2018-06-11T11:47:22.408Z,28.68
2018-06-11T11:48:31.026Z,28.84
2018-06-11T11:49:35.771Z,29.02
2018-06-11T11:50:42.011Z,28.82
2018-06-11T11:51:48.306Z,28.99
2018-06-11T11:52:53.528Z,28.93
2018-06-11T11:54:05.109Z,29.04
2018-06-11T11:55:10.011Z,29.01
2018-06-11T11:56:18.542Z,28.82
2018-06-11T11:57:29.298Z,29.00
2018-06-11T11:58:39.336Z,28.98
2018-06-11T12:01:19.186Z,28.77
2018-06-11T12:02:24.759Z,28.79
2018-06-11T12:03:30.965Z,28.67
2018-06-11T12:04:40.708Z,29.11
2018-06-11T12:05:46.757Z,28.55
2018-06-11T12:06:53.421Z,28.62
2018-06-11T12:08:02.331Z,28.83
2018-06-11T12:09:11.408Z,28.96
2018-06-11T12:10:18.225Z,29.08
2018-06-11T12:11:30.497Z,28.96
2018-06-11T12:12:47.654Z,29.39
2018-06-11T12:13:56.024Z,29.52
2018-06-11T12:15:04.564Z,29.38
2018-06-11T12:16:12.835Z,29.55
2018-06-11T12:17:24.184Z,29.84
2018-06-11T12:19:45.553Z,29.62
2018-06-11T12:20:53.872Z,29.82
2018-06-11T12:22:14.624Z,29.50
2018-06-11T12:23:20.664Z,29.41
2018-06-11T12:24:50.272Z,29.64
2018-06-11T12:26:01.204Z,29.82
2018-06-11T12:27:06.990Z,29.55
2018-06-11T12:28:13.495Z,29.71
2018-06-11T12:29:30.228Z,29.61
2018-06-11T12:30:37.482Z,29.76
2018-06-11T12:31:52.133Z,29.35
2018-06-11T12:33:01.530Z,29.28
2018-06-11T12:34:09.610Z,29.20
2018-06-11T12:35:16.852Z,29.31
2018-06-11T12:36:23.169Z,29.66
2018-06-11T12:37:41.270Z,29.59
2018-06-11T12:38:48.751Z,29.13
2018-06-11T12:39:54.528Z,29.07
2018-06-11T12:41:00.538Z,28.75
2018-06-11T12:42:11.577Z,29.01
2018-06-11T12:43:27.239Z,28.53
2018-06-11T12:44:36.172Z,28.53
2018-06-11T12:45:54.934Z,28.51
2018-06-11T12:47:04.377Z,28.80
2018-06-11T12:48:11.995Z,28.55
2018-06-11T12:49:19.040Z,28.68
2018-06-11T12:50:30.646Z,28.48
2018-06-11T12:51:40.273Z,28.31
2018-06-11T12:52:49.150Z,28.43
2018-06-11T12:53:59.467Z,28.53
2018-06-11T12:55:05.937Z,28.64
2018-06-11T12:56:13.642Z,28.60
2018-06-11T12:57:18.640Z,28.50
2018-06-11T12:58:26.587Z,28.48
2018-06-11T12:59:34.228Z,28.70
2018-06-11T13:01:52.506Z,27.53
2018-06-11T13:03:08.602Z,27.60
2018-06-11T13:04:22.304Z,27.53
2018-06-11T13:05:33.560Z,27.15
2018-06-11T13:06:41.726Z,27.14
2018-06-11T13:07:49.473Z,26.88
2018-06-11T13:14:00.298Z,26.91
2018-06-11T13:15:10.576Z,25.86
2018-06-11T13:16:16.477Z,26.01
2018-06-11T13:17:22.527Z,25.95
2018-06-11T13:18:29.275Z,25.75
2018-06-11T13:19:38.075Z,25.85
2018-06-11T13:23:46.598Z,25.95
2018-06-11T13:24:53.167Z,26.11
2018-06-11T13:26:35.147Z,26.23
2018-06-11T13:27:45.013Z,26.08
2018-06-11T13:28:57.305Z,26.22
2018-06-11T13:30:09.409Z,26.19
2018-06-11T13:31:16.388Z,26.41
2018-06-11T13:32:24.785Z,26.72
2018-06-11T13:33:31.277Z,27.10
2018-06-11T13:34:43.334Z,27.12
2018-06-11T13:41:23.230Z,26.67
2018-06-11T13:42:31.286Z,26.68
2018-06-11T13:43:38.301Z,26.59
2018-06-11T13:50:27.547Z,26.54
2018-06-11T13:51:34.428Z,25.39
2018-06-11T13:52:45.651Z,25.53
2018-06-11T13:53:56.499Z,25.52
2018-06-11T13:55:02.789Z,25.41
2018-06-11T13:56:14.579Z,25.14
2018-06-11T13:57:23.084Z,25.07
2018-06-11T13:58:39.341Z,25.14
2018-06-11T13:59:49.454Z,25.07
2018-06-11T14:00:59.199Z,24.78
2018-06-11T14:02:05.276Z,24.41
2018-06-11T14:03:14.708Z,24.13
2018-06-11T14:04:24.056Z,24.08
2018-06-11T14:05:41.795Z,23.79
2018-06-11T14:06:47.588Z,23.79
2018-06-11T14:07:52.675Z,23.95
2018-06-11T14:08:58.219Z,24.02
2018-06-11T14:10:07.941Z,23.78
2018-06-11T14:11:14.289Z,23.67
2018-06-11T14:12:20.862Z,23.44
2018-06-11T14:13:29.005Z,23.33
2018-06-11T14:14:36.993Z,23.31
2018-06-11T14:15:43.456Z,23.22
2018-06-11T14:17:00.405Z,23.19
2018-06-11T14:18:05.624Z,23.08
2018-06-11T14:19:22.528Z,23.20
2018-06-11T14:20:31.339Z,23.16
2018-06-11T14:21:37.396Z,22.94
2018-06-11T14:22:47.336Z,22.88
2018-06-11T14:23:53.245Z,22.83
2018-06-11T14:25:00.694Z,22.78
2018-06-11T14:26:10.289Z,22.79
2018-06-11T14:27:20.350Z,22.91
2018-06-11T14:28:33.507Z,22.84
2018-06-11T14:29:39.542Z,22.66
2018-06-11T14:30:47.294Z,22.54
2018-06-11T14:31:59.418Z,22.65
2018-06-11T14:33:05.515Z,22.69
2018-06-11T14:34:13.833Z,22.45
2018-06-11T14:35:20.871Z,22.41
2018-06-11T14:36:26.223Z,22.35
2018-06-11T14:37:34.553Z,22.18
2018-06-11T14:38:42.449Z,22.12
2018-06-11T14:39:47.387Z,22.16
2018-06-11T14:40:54.708Z,21.91
2018-06-11T14:42:02.351Z,21.90
2018-06-11T14:43:08.023Z,21.86
2018-06-11T14:44:15.963Z,21.84
2018-06-11T14:45:21.598Z,21.84
2018-06-11T14:46:26.717Z,21.83
2018-06-11T14:47:38.351Z,21.77
2018-06-11T14:48:43.472Z,21.65
2018-06-11T14:49:50.992Z,21.57
2018-06-11T14:50:56.666Z,21.52